Aeroporto :
LOGIN :

Iscrizione | Disclaimer

   EN    FR    IT 

 










Sommario :    VFR   VFR Marginale   IFR   IFR Intensivo   IFR Molto Intensivo
Visibilità : 
Base nubi : 
>= 8 km
>= 3000ft
5 / 8 km
1000 / 3000 ft
1500m / 5 km
500 / 1000 ft
800 / 1500m
200 / 500 ft
< 800m
< 200 ft
Simboli :   Temporali  Nebbia  Neve Forte  Precipitazioni Forti  Vento > 20 kt
SIGMETs :   Varie  Temporali  Ghiacco  Turbolenza  Onda orograficha  Ceneri Vulcaniche







- Altitudine del aeroporto : 598 ft
- Codice IATA : BQH
- Carte del aeroporto


EGKB - Biggin Hill

ULTIMO METAR :
  • 161220Z 20017G27KT 170V250 9999 VCSH SCT015 16/13 Q1017

METARs OBSOLETI :
  • 161150Z 21014KT 190V250 9999 SCT010 SCT020 15/14 Q1017
  • 161120Z 21017KT 9999 VCSH FEW005 BKN010 15/15 Q1017
  • 161050Z 21016G26KT 4000 RADZ FEW005 BKN010 14/14 Q1017
  • 161020Z 19016KT 9000 3000S -RADZ BKN010 14/13 Q1017
  • 160950Z 19015KT 9999 VCSH FEW006 BKN015 14/14 Q1017

TAF TAF EGKB
Valido dal 16 a 12 ore il 16 a 21 ore UTC


161103Z 1612/1621 20012KT 9999 SCT020
PROB30
TEMPO 1612/1616 22016G26KT 8000 SHRA BKN010
Nessun NOTAM noto per questo aeroporto.



MetMap, La meteo Aeronautica in un colpo d'occhio ! - Copyright ORBIFLY Dicembre 2007 - Disclaimer

ORBIFLY MET'MAP TEAM :

Programmazione e sviluppo : Alexandra Zaïnal
Concezione e sviluppo : Baudouin d'Aumeries
Co-Programmazione e sviluppo : Marc-Olivier Méhu
Supporto tecnico e logistico : Manuel Goepfert
Aiuto per la traduzione : Arnaldo La Scala

Contatto : metmap@orbifly.com




FONTI E CREDITI :

   NOAA